Terminal Aerodrome Forecast
Issued by NWS Grand Forks, ND

Home | Current Version | Previous Version | Graphics & Text | Print | Product List | Glossary On
Versions: 1 2 3 4 5 6 7 8 9 10 11 12 13 14 15 16 17 18
017
FTUS43 KFGF 202137 AAA
TAFFAR
TAF AMD
KFAR 202137Z 2022/2118 14010KT 3SM BR OVC006
      TEMPO 2022/2024 5SM BR OVC025
     FM211200 12007KT 4SM BR OVC003=

USA.gov is the U.S. government's official web portal to all federal, state and local government web resources and services.